Hoppa till innehåll

METAR väder och rapporter - ESGG

Nedan listas information från vald flygplats. Andra METARs finns längre ned på sidan. Kontakta oss om någon saknas eller skriv in egen ICAO-kod.

Andra intressanta METARs

Klicka på önskad rubrik nedan för att visa nuvarande väder för den platsen.

Avstånd från stationen: NO 27kmESGG - Göteborg (Landvetter)
Uppdaterad: 2021-05-14 10:20
 Vind från SO
Vind: SO 11 km/h
Temperatur: 14°C
Daggpunkt: 9°C
Luftfuktighet: 72%
Barometer: 1003 hPa
Summering: Klart
Sikt: mer än 10 km
2021/05/14 08:20 ESGG 140820Z 13006KT CAVOK 14/09 Q1003
Klart
Klart
  Visa detaljer för Göteborg (Landvetter)
Avstånd från stationen: N 28kmESGP - Göteborg (Säve)
Uppdaterad: 2021-05-14 11:18
 
unable to load ESGP data RC=404 Not Found
unable to load ESGP data RC=404 Not Found
  Visa detaljer för Göteborg (Säve)
Avstånd från stationen: NO 419kmESSA - Stockholm (Arlanda)
Uppdaterad: 2021-05-14 10:20
 Vind från S
Vind: S 6 km/h
Temperatur: 16°C
Daggpunkt: 8°C
Luftfuktighet: 59%
Barometer: 1005 hPa
Summering: Klart
Sikt: mer än 10 km
2021/05/14 08:20 ESSA 140820Z 18003KT CAVOK 16/08 Q1005 NOSIG
Klart
Klart
  Visa detaljer för Stockholm (Arlanda)
Avstånd från stationen: ONO 404kmESSB - Stockholm (Bromma)
Uppdaterad: 2021-05-14 10:20
 Vind från calm
Vind: Vindstilla
Temperatur: 13°C
Daggpunkt: 11°C
Luftfuktighet: 88%
Barometer: 1005 hPa
Summering: Klart
Sikt: mer än 10 km
2021/05/14 08:20 ESSB 140820Z 00000KT CAVOK 13/11 Q1005
Klart
Klart
  Visa detaljer för Stockholm (Bromma)
Avstånd från stationen: ONO 323kmESKN - Stockholm (Skavsta)
Uppdaterad: 2021-05-14 10:20
 Vind från varierande
Vind: varierande 6 km/h
Temperatur: 17°C
Daggpunkt: 7°C
Luftfuktighet: 52%
Barometer: 1005 hPa
Summering: Klart
Sikt: mer än 10 km
2021/05/14 08:20 ESKN 140820Z VRB03KT CAVOK 17/07 Q1005
Klart
Klart
  Visa detaljer för Stockholm (Skavsta)
Avstånd från stationen: SSO 238kmESMS - Malmö flygplats (Sturup)
Uppdaterad: 2021-05-14 10:20
 Vind från OSO
Vind: OSO 17 km/h
Temperatur: 15°C
Daggpunkt: 9°C
Luftfuktighet: 68%
Barometer: 1003 hPa
Summering: Klart
Sikt: mer än 10 km
2021/05/14 08:20 ESMS 140820Z 11009KT CAVOK 15/09 Q1003
Klart
Klart
  Visa detaljer för Malmö flygplats (Sturup)
Avstånd från stationen: O 382kmESSV - Visby flygplats
Uppdaterad: 2021-05-14 10:20
 Vind från O
Vind: O 7 km/h
Temperatur: 11°C
Daggpunkt: 8°C
Luftfuktighet: 82%
Barometer: 1004 hPa
Summering: Lätt regn, Showers
Moln: Några få moln
Sikt: 10 km
Molninformation: Några få moln 1219 m
2021/05/14 08:20 ESSV 140820Z 08004KT 9999 -SHRA FEW040CB 11/08 Q1004
Lätt regn, Showers, Några få moln
Lätt regn
Showers
Några få moln
  Visa detaljer för Visby flygplats
Avstånd från stationen: NNO 92kmESGT - Trollhättan
Uppdaterad: 2021-05-14 02:20
Ej aktuell
 Vind från NNO
Vind: NNO 7 km/h
Temperatur: 9°C
Vindavkylning: 8°C
Daggpunkt: 9°C
Luftfuktighet: 100%
Barometer: 1004 hPa
Moln: Klart
Sikt: 5 km
2021/05/14 00:20 ESGT 140020Z AUTO 03004KT 5000 NCD 09/09 Q1004
Klart
Klart
  Visa detaljer för Trollhättan
Avstånd från stationen: ONO 129kmESGJ - Jönköpings flygplats
Uppdaterad: 2021-05-14 10:20
 Vind från O
Vind: O 11 km/h
Temperatur: 16°C
Daggpunkt: 8°C
Luftfuktighet: 59%
Barometer: 1004 hPa
Summering: Klart
Sikt: mer än 10 km
2021/05/14 08:20 ESGJ 140820Z 09006KT 060V130 CAVOK 16/08 Q1004
Klart
Klart
  Visa detaljer för Jönköpings flygplats
Avstånd från stationen: NNO 229kmESOK - Karlstad
Uppdaterad: 2021-05-14 10:20
 Vind från NNO
Vind: NNO 13 km/h
Temperatur: 14°C
Daggpunkt: 11°C
Luftfuktighet: 82%
Barometer: 1005 hPa
Summering: Klart
Sikt: mer än 10 km
2021/05/14 08:20 ESOK 140820Z 03007KT CAVOK 14/11 Q1005
Klart
Klart
  Visa detaljer för Karlstad
Avstånd från stationen: N 643kmESNZ - Östersund (Frösön)
Uppdaterad: 2021-05-14 10:20
 Vind från varierande
Vind: varierande 6 km/h
Temperatur: 6°C
Daggpunkt: 6°C
Luftfuktighet: 100%
Barometer: 1010 hPa
Moln: Genommulet
Sikt: 10 km
Molninformation: Genommulet 61 m
2021/05/14 08:20 ESNZ 140820Z AUTO VRB03KT 9999 VV002 06/06 Q1010
Genommulet
Genommulet
  Visa detaljer för Östersund (Frösön)
Avstånd från stationen: SSO 216kmEKCH - Köpenhamn (Kastrup)
Uppdaterad: 2021-05-14 04:20
Ej aktuell
 Vind från N
Vind: N 11 km/h
Temperatur: 10°C
Vindavkylning: 8°C
Daggpunkt: 8°C
Luftfuktighet: 88%
Barometer: 1003 hPa
Moln: Klart
Sikt: 10 km
2021/05/14 02:20 EKCH 140220Z AUTO 01006KT 9999 NCD 10/08 Q1003 NOSIG
Klart
Klart
  Visa detaljer för Köpenhamn (Kastrup)
Avstånd från stationen: SV 263kmEKBI - Billund Airport
Uppdaterad: 2021-05-14 08:20
Ej aktuell
 Vind från NV
Vind: NV 17 km/h
Temperatur: 9°C
Vindavkylning: 7°C
Daggpunkt: 9°C
Luftfuktighet: 100%
Barometer: 1003 hPa
Moln: Några få moln
Sikt: 5 km
Molninformation: Delvis molnigt 122 m
Övervägande molnigt 914 m
Några få moln 1524 m
2021/05/14 06:20 EKBI 140620Z 32009KT 5000 SCT004 BKN030 FEW050CB 09/09 Q1003
Några få moln
Några få moln
  Visa detaljer för Billund Airport
Avstånd från stationen: N 302kmENGM - Oslo (Gardermoen)
Uppdaterad: 2021-05-14 10:20
 Vind från NNO
Vind: NNO 17 km/h
Temperatur: 13°C
Daggpunkt: 9°C
Luftfuktighet: 77%
Barometer: 1006 hPa
Summering: Lätt regn
Moln: Delvis molnigt
Sikt: 10 km
2021/05/14 08:20 ENGM 140820Z 03009KT 9999 -RA NSC 13/09 Q1006 NOSIG
Lätt regn, Delvis molnigt
Lätt regn
Delvis molnigt
  Visa detaljer för Oslo (Gardermoen)
Avstånd från stationen: NO 540kmEFMA - Mariehamn / Åland
Uppdaterad: 2021-05-14 10:20
 Vind från SSO
Vind: SSO 15 km/h
Temperatur: 15°C
Daggpunkt: 9°C
Luftfuktighet: 68%
Barometer: 1006 hPa
Summering: Klart
Sikt: mer än 10 km
2021/05/14 08:20 EFMA 140820Z AUTO 15008KT CAVOK 15/09 Q1006
Klart
Klart
  Visa detaljer för Mariehamn / Åland
Avstånd från stationen: S 558kmEDDT - Berlin (Tegel), Germany
Uppdaterad: 2021-05-14 11:18
 
unable to load EDDT data RC=404 Not Found
unable to load EDDT data RC=404 Not Found
  Visa detaljer för Berlin (Tegel), Germany
Avstånd från stationen: SV 737kmEHAM - Amsterdam (Schiphol)
Uppdaterad: 2021-05-14 10:25
 Vind från NNO
Vind: NNO 6 km/h
Temperatur: 10°C
Daggpunkt: 8°C
Luftfuktighet: 88%
Barometer: 1008 hPa
Moln: Övervägande molnigt
Sikt: 10 km
Molninformation: Några få moln 335 m
Delvis molnigt 457 m
Övervägande molnigt 518 m
2021/05/14 08:25 EHAM 140825Z 03003KT 310V100 9999 FEW011 SCT015 BKN017 10/08 Q1008 BECMG SCT018
Övervägande molnigt
Övervägande molnigt
  Visa detaljer för Amsterdam (Schiphol)
Avstånd från stationen: ONO 808kmEFHK - Helsingfors (Vantaa)
Uppdaterad: 2021-05-14 10:20
 Vind från OSO
Vind: OSO 20 km/h
Temperatur: 16°C
Daggpunkt: 7°C
Luftfuktighet: 55%
Barometer: 1008 hPa
Summering: Klart
Sikt: mer än 10 km
2021/05/14 08:20 EFHK 140820Z 12011KT CAVOK 16/07 Q1008 NOSIG
Klart
Klart
  Visa detaljer för Helsingfors (Vantaa)
Avstånd från stationen: SSV 537kmEDDW - Bremen
Uppdaterad: 2021-05-14 10:20
 Vind från VNV
Vind: VNV 13 km/h
Temperatur: 10°C
Vindavkylning: 8°C
Daggpunkt: 6°C
Luftfuktighet: 76%
Barometer: 1007 hPa
Moln: Övervägande molnigt
Sikt: 10 km
Molninformation: Övervägande molnigt 457 m
2021/05/14 08:20 EDDW 140820Z 29007KT 250V310 9999 BKN015 10/06 Q1007 TEMPO BKN014
Övervägande molnigt
Övervägande molnigt
  Visa detaljer för Bremen
Avstånd från stationen: SSV 861kmEDDF - Frankfurt am Main
Uppdaterad: 2021-05-14 10:20
 Vind från S
Vind: S 11 km/h
Temperatur: 14°C
Daggpunkt: 8°C
Luftfuktighet: 67%
Barometer: 1008 hPa
Moln: Några få moln
Sikt: 10 km
Molninformation: Några få moln 762 m
2021/05/14 08:20 EDDF 140820Z 19006KT 160V230 9999 FEW025 14/08 Q1008 NOSIG
Några få moln
Några få moln
  Visa detaljer för Frankfurt am Main
Avstånd från stationen: SV 880kmEBBR - Bryssel international
Uppdaterad: 2021-05-14 10:20
 Vind från varierande
Vind: varierande 2 km/h
Temperatur: 13°C
Daggpunkt: 8°C
Luftfuktighet: 72%
Barometer: 1008 hPa
Moln: Delvis molnigt
Sikt: 10 km
Molninformation: Delvis molnigt 671 m
2021/05/14 08:20 EBBR 140820Z VRB01KT 9999 SCT022TCU 13/08 Q1008 NOSIG
Delvis molnigt
Delvis molnigt
  Visa detaljer för Bryssel international
Avstånd från stationen: SV 738kmEHAM - Amsterdam (Schiphol)
Uppdaterad: 2021-05-14 10:25
 Vind från NNO
Vind: NNO 6 km/h
Temperatur: 10°C
Daggpunkt: 8°C
Luftfuktighet: 88%
Barometer: 1008 hPa
Moln: Övervägande molnigt
Sikt: 10 km
Molninformation: Några få moln 335 m
Delvis molnigt 457 m
Övervägande molnigt 518 m
2021/05/14 08:25 EHAM 140825Z 03003KT 310V100 9999 FEW011 SCT015 BKN017 10/08 Q1008 BECMG SCT018
Övervägande molnigt
Övervägande molnigt
  Visa detaljer för Amsterdam (Schiphol)
Avstånd från stationen: SV 1044kmEGLL - London (Heathrow)
Uppdaterad: 2021-05-14 10:20
 Vind från NO
Vind: NO 9 km/h
Temperatur: 9°C
Vindavkylning: 7°C
Daggpunkt: 7°C
Luftfuktighet: 87%
Barometer: 1010 hPa
Moln: Genommulet
Sikt: 10 km
Molninformation: Delvis molnigt 427 m
Genommulet 579 m
2021/05/14 08:20 EGLL 140820Z AUTO 04005KT 360V080 9999 SCT014 OVC019 09/07 Q1010
Genommulet
Genommulet
  Visa detaljer för London (Heathrow)
Avstånd från stationen: SV 1132kmLFPG - Paris (Charles de Gaulle)
Uppdaterad: 2021-05-14 10:30
 Vind från S
Vind: S 11 km/h
Temperatur: 10°C
Vindavkylning: 8°C
Daggpunkt: 7°C
Luftfuktighet: 82%
Barometer: 1008 hPa
Summering: Lätt regn
Moln: Övervägande molnigt
Sikt: 10 km
Molninformation: Övervägande molnigt 396 m
2021/05/14 08:30 LFPG 140830Z 19006KT 9999 -RA BKN013 10/07 Q1008 TEMPO 4000 -RA BKN010 SCT035TCU
Lätt regn, Övervägande molnigt
Lätt regn
Övervägande molnigt
  Visa detaljer för Paris (Charles de Gaulle)
Avstånd från stationen: SSV 1142kmLSZH - Zürich Airport
Uppdaterad: 2021-05-14 10:20
 Vind från varierande
Vind: varierande 4 km/h
Temperatur: 13°C
Daggpunkt: 6°C
Luftfuktighet: 63%
Barometer: 1010 hPa
Moln: Några få moln
Sikt: 10 km
Molninformation: Några få moln 914 m
2021/05/14 08:20 LSZH 140820Z VRB02KT 9999 FEW030 13/06 Q1010 NOSIG
Några få moln
Några få moln
  Visa detaljer för Zürich Airport
Avstånd från stationen: S 1749kmLIRF - Rome Airport (Fiumicino - Leonardo da Vinci)
Uppdaterad: 2021-05-14 10:20
 Vind från S
Vind: S 15 km/h
Vindby: 33 km/h
Temperatur: 19°C
Daggpunkt: 11°C
Luftfuktighet: 60%
Barometer: 1012 hPa
Moln: Delvis molnigt
Sikt: 10 km
Molninformation: Några få moln 914 m
Delvis molnigt 1219 m
2021/05/14 08:20 LIRF 140820Z 19008G18KT 140V220 9999 FEW030 SCT040 19/11 Q1012 NOSIG
Delvis molnigt
Delvis molnigt
  Visa detaljer för Rome Airport (Fiumicino - Leonardo da Vinci)
Avstånd från stationen: SO 2679kmLTAI - Antalya
Uppdaterad: 2021-05-14 10:20
 Vind från S
Vind: S 15 km/h
Temperatur: 23°C
Daggpunkt: 16°C
Luftfuktighet: 65%
Barometer: 1015 hPa
Summering: Klart
Sikt: mer än 10 km
2021/05/14 08:20 LTAI 140820Z 18008KT 140V210 CAVOK 23/16 Q1015 NOSIG RMK RWY18C 17008KT 120V210 RWY36R 14009KT 110V170 RWY18L 18008KT 140V210
Klart
Klart
  Visa detaljer för Antalya
Avstånd från stationen: VSV 6074kmKJFK - New Your (JFK)
Uppdaterad: 2021-05-14 09:51
Ej aktuell
 Vind från VSV
Vind: VSV 9 km/h
Temperatur: 10°C
Vindavkylning: 9°C
Daggpunkt: 3°C
Luftfuktighet: 62%
Barometer: 1022.7 hPa
Moln: Klart
Sikt: 16 km
2021/05/14 07:51 KJFK 140751Z 25005KT 10SM CLR 10/03 A3020 RMK AO2 SLP227 T01000033
Klart
Klart
  Visa detaljer för New Your (JFK)
Avstånd från stationen: VSV 8848kmKLAX - Los Angeles International Airport
Uppdaterad: 2021-05-14 09:53
Ej aktuell
 Vind från V
Vind: V 15 km/h
Temperatur: 15°C
Daggpunkt: 12°C
Luftfuktighet: 82%
Barometer: 1016.3 hPa
Moln: Genommulet
Sikt: 16 km
Molninformation: Genommulet 335 m
2021/05/14 07:53 KLAX 140753Z 27008KT 10SM OVC011 15/12 A3001 RMK AO2 SLP159 T01500122 401780144
Genommulet
Genommulet
  Visa detaljer för Los Angeles International Airport
Avstånd från stationen: SO 4968kmOMDB - Dubai International Airport
Uppdaterad: 2021-05-14 10:00
Ej aktuell
 Vind från varierande
Vind: varierande 7 km/h
Temperatur: 39°C
Daggpunkt: 7°C
Luftfuktighet: 14%
Barometer: 1002 hPa
Summering: Klart
Sikt: mer än 10 km
2021/05/14 08:00 OMDB 140800Z VRB04KT CAVOK 39/07 Q1002 NOSIG
Klart
Klart
  Visa detaljer för Dubai International Airport
Avstånd från stationen: OSO 8570kmRJTT - Tokyo International Airport
Uppdaterad: 2021-05-14 01:00
Ej aktuell
 Vind från NO
Vind: NO 9 km/h
Temperatur: 20°C
Daggpunkt: 16°C
Luftfuktighet: 78%
Barometer: 1013 hPa
Moln: Några få moln
Sikt: 10 km
Molninformation: Några få moln 305 m
2021/05/13 23:00 RJTT 132300Z 05005KT 9999 FEW010 20/16 Q1013 BECMG 08006KT RMK 1ST010 A2992
Några få moln
Några få moln
  Visa detaljer för Tokyo International Airport
Avstånd från stationen: OSO 7125kmZBAA - Peking (Beijing Capital)
Uppdaterad: 2021-05-14 10:30
 Vind från SO
Vind: SO 11 km/h
Temperatur: 23°C
Daggpunkt: 17°C
Luftfuktighet: 69%
Barometer: 1005 hPa
Moln: Delvis molnigt
Sikt: 6 km
2021/05/14 08:30 ZBAA 140830Z 14003MPS 110V180 6000 NSC 23/17 Q1005 NOSIG
Delvis molnigt
Delvis molnigt
  Visa detaljer för Peking (Beijing Capital)
VÄDER KURIOSA -  Weather TermsDew Point - A measure of atmospheric moisture. It is the temperature to which air must be cooled in order to reach saturation (assuming pressure and moisture content are constant).